sensor_id;sensor_type;location;lat;lon;timestamp;pressure;altitude;pressure_sealevel;temperature;humidity
48390;BME280;34643;47.964;7.982;2023-04-21T00:02:41;96199.19;;;17.42;57.58
48390;BME280;34643;47.964;7.982;2023-04-21T00:07:41;96197.41;;;17.42;57.64
48390;BME280;34643;47.964;7.982;2023-04-21T00:12:41;96200.88;;;17.43;57.45
48390;BME280;34643;47.964;7.982;2023-04-21T00:17:41;96193.84;;;17.43;57.67
48390;BME280;34643;47.964;7.982;2023-04-21T00:22:42;96188.75;;;17.42;57.55
48390;BME280;34643;47.964;7.982;2023-04-21T00:27:42;96184.50;;;17.41;57.59
48390;BME280;34643;47.964;7.982;2023-04-21T00:32:44;96184.50;;;17.41;57.43
48390;BME280;34643;47.964;7.982;2023-04-21T00:37:44;96184.50;;;17.41;57.78
48390;BME280;34643;47.964;7.982;2023-04-21T00:42:44;96181.88;;;17.41;57.62
48390;BME280;34643;47.964;7.982;2023-04-21T00:47:45;96185.34;;;17.41;57.76
48390;BME280;34643;47.964;7.982;2023-04-21T00:52:45;96182.03;;;17.39;57.58
48390;BME280;34643;47.964;7.982;2023-04-21T00:57:46;96177.63;;;17.40;57.84
48390;BME280;34643;47.964;7.982;2023-04-21T01:02:48;96179.28;;;17.41;57.93
48390;BME280;34643;47.964;7.982;2023-04-21T01:07:48;96178.44;;;17.40;57.92
48390;BME280;34643;47.964;7.982;2023-04-21T01:12:49;96179.28;;;17.41;57.64
48390;BME280;34643;47.964;7.982;2023-04-21T01:17:49;96168.84;;;17.41;57.73
48390;BME280;34643;47.964;7.982;2023-04-21T01:22:53;96175.84;;;17.40;57.64
48390;BME280;34643;47.964;7.982;2023-04-21T01:27:53;96184.50;;;17.41;57.62
48390;BME280;34643;47.964;7.982;2023-04-21T01:32:54;96179.44;;;17.39;57.83
48390;BME280;34643;47.964;7.982;2023-04-21T01:37:59;96177.63;;;17.40;57.78
48390;BME280;34643;47.964;7.982;2023-04-21T01:43:00;96177.63;;;17.40;57.67
48390;BME280;34643;47.964;7.982;2023-04-21T01:48:00;96175.97;;;17.39;57.63
48390;BME280;34643;47.964;7.982;2023-04-21T01:53:01;96181.19;;;17.39;57.58
48390;BME280;34643;47.964;7.982;2023-04-21T01:58:01;96182.03;;;17.39;57.53
48390;BME280;34643;47.964;7.982;2023-04-21T02:03:01;96175.16;;;17.38;57.49
48390;BME280;34643;47.964;7.982;2023-04-21T02:08:02;96174.34;;;17.38;57.36
48390;BME280;34643;47.964;7.982;2023-04-21T02:13:02;96174.34;;;17.38;57.33
48390;BME280;34643;47.964;7.982;2023-04-21T02:18:03;96179.56;;;17.38;57.46
48390;BME280;34643;47.964;7.982;2023-04-21T02:23:03;96181.19;;;17.39;57.56
48390;BME280;34643;47.964;7.982;2023-04-21T02:28:03;96169.94;;;17.38;57.61
48390;BME280;34643;47.964;7.982;2023-04-21T02:33:04;96162.94;;;17.39;57.53
48390;BME280;34643;47.964;7.982;2023-04-21T02:38:04;96160.31;;;17.39;57.34
48390;BME280;34643;47.964;7.982;2023-04-21T02:43:08;96167.06;;;17.41;57.50
48390;BME280;34643;47.964;7.982;2023-04-21T02:48:08;96160.06;;;17.42;57.23
48390;BME280;34643;47.964;7.982;2023-04-21T02:53:08;96151.31;;;17.43;57.38
48390;BME280;34643;47.964;7.982;2023-04-21T02:58:10;96163.50;;;17.42;57.20
48390;BME280;34643;47.964;7.982;2023-04-21T03:03:10;96160.88;;;17.42;57.45
48390;BME280;34643;47.964;7.982;2023-04-21T03:08:11;96152.94;;;17.44;57.12
48390;BME280;34643;47.964;7.982;2023-04-21T03:13:12;96148.53;;;17.44;57.43
48390;BME280;34643;47.964;7.982;2023-04-21T03:18:12;96142.50;;;17.44;57.19
48390;BME280;34643;47.964;7.982;2023-04-21T03:23:14;96145.94;;;17.44;57.10
48390;BME280;34643;47.964;7.982;2023-04-21T03:28:14;96145.09;;;17.44;57.14
48390;BME280;34643;47.964;7.982;2023-04-21T03:33:15;96139.88;;;17.44;57.43
48390;BME280;34643;47.964;7.982;2023-04-21T03:38:16;96146.91;;;17.43;57.42
48390;BME280;34643;47.964;7.982;2023-04-21T03:43:16;96147.84;;;17.42;57.45
48390;BME280;34643;47.964;7.982;2023-04-21T03:48:16;96151.72;;;17.48;57.23
48390;BME280;34643;47.964;7.982;2023-04-21T03:53:17;96153.56;;;17.57;57.38
48390;BME280;34643;47.964;7.982;2023-04-21T03:58:17;96153.44;;;17.59;57.36
48390;BME280;34643;47.964;7.982;2023-04-21T04:03:17;96156.59;;;17.62;57.29
48390;BME280;34643;47.964;7.982;2023-04-21T04:08:19;96151.22;;;17.64;57.56
48390;BME280;34643;47.964;7.982;2023-04-21T04:13:19;96151.94;;;17.66;57.37
48390;BME280;34643;47.964;7.982;2023-04-21T04:18:21;96152.66;;;17.68;57.53
48390;BME280;34643;47.964;7.982;2023-04-21T04:23:21;96159.50;;;17.69;57.39
48390;BME280;34643;47.964;7.982;2023-04-21T04:28:22;96161.06;;;17.81;57.89
48390;BME280;34643;47.964;7.982;2023-04-21T04:33:22;96150.56;;;17.93;58.35
48390;BME280;34643;47.964;7.982;2023-04-21T04:38:22;96157.53;;;14.87;49.25
48390;BME280;34643;47.964;7.982;2023-04-21T04:43:23;96157.41;;;13.92;47.90
48390;BME280;34643;47.964;7.982;2023-04-21T04:48:24;96164.81;;;13.46;46.52
48390;BME280;34643;47.964;7.982;2023-04-21T04:53:26;96175.34;;;13.95;48.13
48390;BME280;34643;47.964;7.982;2023-04-21T04:58:27;96165.22;;;15.57;48.67
48390;BME280;34643;47.964;7.982;2023-04-21T05:03:27;96171.00;;;16.18;49.17
48390;BME280;34643;47.964;7.982;2023-04-21T05:08:27;96173.56;;;16.40;49.30
48390;BME280;34643;47.964;7.982;2023-04-21T05:13:27;96172.00;;;16.49;49.88
48390;BME280;34643;47.964;7.982;2023-04-21T05:18:28;96177.53;;;16.56;50.43
48390;BME280;34643;47.964;7.982;2023-04-21T05:23:28;96176.06;;;16.63;50.62
48390;BME280;34643;47.964;7.982;2023-04-21T05:28:28;96182.72;;;16.67;51.03
48390;BME280;34643;47.964;7.982;2023-04-21T05:33:30;96186.72;;;16.71;51.22
48390;BME280;34643;47.964;7.982;2023-04-21T05:38:31;96184.69;;;16.75;51.27
48390;BME280;34643;47.964;7.982;2023-04-21T05:43:32;96186.34;;;16.76;51.66
48390;BME280;34643;47.964;7.982;2023-04-21T05:48:33;96188.69;;;16.79;51.86
48390;BME280;34643;47.964;7.982;2023-04-21T05:53:33;96182.53;;;16.80;51.76
48390;BME280;34643;47.964;7.982;2023-04-21T05:58:34;96184.06;;;16.82;51.97
48390;BME280;34643;47.964;7.982;2023-04-21T06:03:34;96176.16;;;16.84;52.27
48390;BME280;34643;47.964;7.982;2023-04-21T06:08:35;96189.75;;;16.87;52.36
48390;BME280;34643;47.964;7.982;2023-04-21T06:13:35;96180.88;;;16.90;52.15
48390;BME280;34643;47.964;7.982;2023-04-21T06:18:35;96174.44;;;16.94;52.36
48390;BME280;34643;47.964;7.982;2023-04-21T06:23:36;96176.81;;;16.97;52.29
48390;BME280;34643;47.964;7.982;2023-04-21T06:28:36;96169.81;;;16.98;52.43
48390;BME280;34643;47.964;7.982;2023-04-21T06:33:38;96162.00;;;16.98;52.52
48390;BME280;34643;47.964;7.982;2023-04-21T06:38:38;96164.47;;;16.99;52.63
48390;BME280;34643;47.964;7.982;2023-04-21T06:43:40;96153.22;;;16.99;52.76
48390;BME280;34643;47.964;7.982;2023-04-21T06:48:41;96146.34;;;16.98;52.93
48390;BME280;34643;47.964;7.982;2023-04-21T06:53:41;96149.94;;;16.97;52.87
48390;BME280;34643;47.964;7.982;2023-04-21T06:58:42;96148.25;;;16.96;52.98
48390;BME280;34643;47.964;7.982;2023-04-21T07:03:42;96145.66;;;16.96;53.09
48390;BME280;34643;47.964;7.982;2023-04-21T07:08:42;96147.44;;;16.95;53.09
48390;BME280;34643;47.964;7.982;2023-04-21T07:13:42;96155.25;;;16.95;53.36
48390;BME280;34643;47.964;7.982;2023-04-21T07:18:43;96147.44;;;16.95;53.33
48390;BME280;34643;47.964;7.982;2023-04-21T07:23:43;96129.38;;;17.03;53.56
48390;BME280;34643;47.964;7.982;2023-04-21T07:28:43;96123.09;;;17.06;53.67
48390;BME280;34643;47.964;7.982;2023-04-21T07:33:44;96109.59;;;17.01;53.85
48390;BME280;34643;47.964;7.982;2023-04-21T07:38:44;96120.03;;;17.01;53.72
48390;BME280;34643;47.964;7.982;2023-04-21T07:43:44;96124.56;;;16.99;54.09
48390;BME280;34643;47.964;7.982;2023-04-21T07:48:44;96118.50;;;16.98;54.13
48390;BME280;34643;47.964;7.982;2023-04-21T07:53:45;96114.94;;;16.99;54.13
48390;BME280;34643;47.964;7.982;2023-04-21T07:58:45;96113.16;;;17.00;54.17
48390;BME280;34643;47.964;7.982;2023-04-21T08:03:45;96116.72;;;16.99;54.09
48390;BME280;34643;47.964;7.982;2023-04-21T08:08:46;96107.13;;;16.99;54.24
48390;BME280;34643;47.964;7.982;2023-04-21T08:13:46;96095.03;;;16.98;54.39
48390;BME280;34643;47.964;7.982;2023-04-21T08:18:48;96082.00;;;16.98;54.54
48390;BME280;34643;47.964;7.982;2023-04-21T08:23:48;96081.03;;;16.99;54.25
48390;BME280;34643;47.964;7.982;2023-04-21T08:28:50;96071.56;;;16.98;54.49
48390;BME280;34643;47.964;7.982;2023-04-21T08:33:52;96072.41;;;16.99;54.39
48390;BME280;34643;47.964;7.982;2023-04-21T08:38:52;96074.03;;;17.00;54.39
48390;BME280;34643;47.964;7.982;2023-04-21T08:43:52;96072.28;;;17.00;54.53
48390;BME280;34643;47.964;7.982;2023-04-21T08:48:53;96065.28;;;17.01;54.59
48390;BME280;34643;47.964;7.982;2023-04-21T08:53:53;96061.00;;;17.00;54.53
48390;BME280;34643;47.964;7.982;2023-04-21T08:58:54;96054.84;;;17.01;54.66
48390;BME280;34643;47.964;7.982;2023-04-21T09:04:14;96048.81;;;17.00;54.63
48390;BME280;34643;47.964;7.982;2023-04-21T09:09:15;96049.63;;;17.01;54.84
48390;BME280;34643;47.964;7.982;2023-04-21T09:14:16;96053.06;;;17.01;54.93
48390;BME280;34643;47.964;7.982;2023-04-21T09:19:18;96050.44;;;17.01;54.91
48390;BME280;34643;47.964;7.982;2023-04-21T09:24:19;96050.44;;;17.01;55.04
48390;BME280;34643;47.964;7.982;2023-04-21T09:29:23;96047.03;;;17.01;55.00
48390;BME280;34643;47.964;7.982;2023-04-21T09:34:24;96061.69;;;17.02;54.99
48390;BME280;34643;47.964;7.982;2023-04-21T09:39:24;96070.63;;;16.99;55.08
48390;BME280;34643;47.964;7.982;2023-04-21T09:44:24;96075.00;;;16.99;55.23
48390;BME280;34643;47.964;7.982;2023-04-21T09:49:25;96093.97;;;17.01;55.34
48390;BME280;34643;47.964;7.982;2023-04-21T09:54:29;96093.97;;;17.01;55.07
48390;BME280;34643;47.964;7.982;2023-04-21T09:59:36;96087.78;;;17.02;55.23
48390;BME280;34643;47.964;7.982;2023-04-21T10:04:37;96086.00;;;17.02;55.31
48390;BME280;34643;47.964;7.982;2023-04-21T10:09:44;96084.22;;;17.03;55.37
48390;BME280;34643;47.964;7.982;2023-04-21T10:14:49;96075.59;;;17.02;55.46
48390;BME280;34643;47.964;7.982;2023-04-21T10:19:51;96072.84;;;17.04;55.24
48390;BME280;34643;47.964;7.982;2023-04-21T10:24:53;96061.56;;;17.03;55.54
48390;BME280;34643;47.964;7.982;2023-04-21T10:29:53;96066.78;;;17.03;55.43
48390;BME280;34643;47.964;7.982;2023-04-21T10:34:54;96065.97;;;17.03;55.41
48390;BME280;34643;47.964;7.982;2023-04-21T10:39:55;96055.53;;;17.03;55.48
48390;BME280;34643;47.964;7.982;2023-04-21T10:49:57;96043.31;;;17.03;55.60
48390;BME280;34643;47.964;7.982;2023-04-21T10:59:58;96043.06;;;17.06;55.46
48390;BME280;34643;47.964;7.982;2023-04-21T11:04:58;96055.03;;;17.09;55.68
48390;BME280;34643;47.964;7.982;2023-04-21T11:10:00;96046.50;;;17.07;55.55
48390;BME280;34643;47.964;7.982;2023-04-21T11:15:02;96050.06;;;17.06;55.42
48390;BME280;34643;47.964;7.982;2023-04-21T11:20:03;96056.50;;;17.02;55.61
48390;BME280;34643;47.964;7.982;2023-04-21T11:25:03;96057.47;;;17.01;55.25
48390;BME280;34643;47.964;7.982;2023-04-21T11:30:04;96063.50;;;17.01;55.53
48390;BME280;34643;47.964;7.982;2023-04-21T11:35:04;96060.88;;;17.01;55.36
48390;BME280;34643;47.964;7.982;2023-04-21T11:40:06;96061.84;;;17.00;55.39
48390;BME280;34643;47.964;7.982;2023-04-21T11:45:07;96051.00;;;16.95;55.36
48390;BME280;34643;47.964;7.982;2023-04-21T11:50:33;96051.94;;;16.94;55.34
48390;BME280;34643;47.964;7.982;2023-04-21T11:55:33;96047.41;;;16.96;54.88
48390;BME280;34643;47.964;7.982;2023-04-21T12:00:36;96047.06;;;17.10;54.89
48390;BME280;34643;47.964;7.982;2023-04-21T12:05:36;96036.91;;;17.07;54.81
48390;BME280;34643;47.964;7.982;2023-04-21T12:10:37;96031.94;;;17.04;55.09
48390;BME280;34643;47.964;7.982;2023-04-21T12:15:37;96039.22;;;17.01;55.06
48390;BME280;34643;47.964;7.982;2023-04-21T12:20:37;96051.44;;;17.00;54.99
48390;BME280;34643;47.964;7.982;2023-04-21T12:25:38;96047.97;;;17.00;55.03
48390;BME280;34643;47.964;7.982;2023-04-21T12:30:38;96055.91;;;16.98;55.06
48390;BME280;34643;47.964;7.982;2023-04-21T12:35:38;96068.13;;;16.98;54.84
48390;BME280;34643;47.964;7.982;2023-04-21T12:40:39;96079.38;;;16.98;54.96
48390;BME280;34643;47.964;7.982;2023-04-21T12:45:39;96087.06;;;17.00;54.81
48390;BME280;34643;47.964;7.982;2023-04-21T12:50:39;96085.44;;;16.99;54.85
48390;BME280;34643;47.964;7.982;2023-04-21T12:55:40;96089.81;;;16.98;54.68
48390;BME280;34643;47.964;7.982;2023-04-21T13:00:40;96096.13;;;16.96;54.83
48390;BME280;34643;47.964;7.982;2023-04-21T13:05:40;96091.44;;;16.89;54.86
48390;BME280;34643;47.964;7.982;2023-04-21T13:10:41;96095.56;;;16.92;54.52
48390;BME280;34643;47.964;7.982;2023-04-21T13:15:41;96105.72;;;16.95;54.61
48390;BME280;34643;47.964;7.982;2023-04-21T13:20:42;96098.03;;;16.94;54.48
48390;BME280;34643;47.964;7.982;2023-04-21T13:25:42;96089.53;;;16.91;54.44
48390;BME280;34643;47.964;7.982;2023-04-21T13:30:45;96088.81;;;16.89;54.61
48390;BME280;34643;47.964;7.982;2023-04-21T13:35:45;96083.47;;;16.91;54.35
48390;BME280;34643;47.964;7.982;2023-04-21T13:40:45;96078.97;;;16.93;54.37
48390;BME280;34643;47.964;7.982;2023-04-21T13:45:47;96084.75;;;16.97;54.11
48390;BME280;34643;47.964;7.982;2023-04-21T13:50:51;96080.81;;;17.02;54.03
48390;BME280;34643;47.964;7.982;2023-04-21T13:55:51;96078.50;;;17.09;54.15
48390;BME280;34643;47.964;7.982;2023-04-21T14:00:53;96074.50;;;17.05;54.27
48390;BME280;34643;47.964;7.982;2023-04-21T14:05:54;96067.88;;;17.01;54.38
48390;BME280;34643;47.964;7.982;2023-04-21T14:10:55;96060.19;;;16.99;54.48
48390;BME280;34643;47.964;7.982;2023-04-21T14:15:55;96071.72;;;16.97;54.34
48390;BME280;34643;47.964;7.982;2023-04-21T14:20:56;96064.84;;;16.96;54.56
48390;BME280;34643;47.964;7.982;2023-04-21T14:25:56;96061.41;;;16.95;54.47
48390;BME280;34643;47.964;7.982;2023-04-21T14:30:58;96057.16;;;16.94;54.44
48390;BME280;34643;47.964;7.982;2023-04-21T14:35:58;96056.31;;;16.94;54.14
48390;BME280;34643;47.964;7.982;2023-04-21T14:40:58;96063.31;;;16.93;54.43
48390;BME280;34643;47.964;7.982;2023-04-21T14:45:59;96056.44;;;16.92;54.36
48390;BME280;34643;47.964;7.982;2023-04-21T14:50:59;96065.09;;;16.92;54.68
48390;BME280;34643;47.964;7.982;2023-04-21T14:55:59;96061.78;;;16.90;54.25
48390;BME280;34643;47.964;7.982;2023-04-21T15:01:00;96063.69;;;16.88;54.42
48390;BME280;34643;47.964;7.982;2023-04-21T15:06:00;96060.16;;;16.89;54.49
48390;BME280;34643;47.964;7.982;2023-04-21T15:11:00;96054.09;;;16.89;54.53
48390;BME280;34643;47.964;7.982;2023-04-21T15:16:01;96049.97;;;16.86;54.38
48390;BME280;34643;47.964;7.982;2023-04-21T15:21:01;96049.00;;;16.87;54.47
48390;BME280;34643;47.964;7.982;2023-04-21T15:26:01;96046.41;;;16.87;54.18
48390;BME280;34643;47.964;7.982;2023-04-21T15:31:02;96050.41;;;16.91;54.32
48390;BME280;34643;47.964;7.982;2023-04-21T15:36:02;96047.69;;;16.93;54.24
48390;BME280;34643;47.964;7.982;2023-04-21T15:41:02;96036.84;;;16.98;54.19
48390;BME280;34643;47.964;7.982;2023-04-21T15:46:03;96038.53;;;16.99;54.04
48390;BME280;34643;47.964;7.982;2023-04-21T15:51:11;96033.03;;;17.02;54.25
48390;BME280;34643;47.964;7.982;2023-04-21T15:56:12;96035.63;;;17.02;54.09
48390;BME280;34643;47.964;7.982;2023-04-21T16:01:13;96037.28;;;17.03;53.99
48390;BME280;34643;47.964;7.982;2023-04-21T16:06:14;96033.75;;;17.04;54.17
48390;BME280;34643;47.964;7.982;2023-04-21T16:11:15;96030.28;;;17.03;54.14
48390;BME280;34643;47.964;7.982;2023-04-21T16:16:15;96024.25;;;17.03;53.98
48390;BME280;34643;47.964;7.982;2023-04-21T16:21:16;96013.84;;;17.03;53.94
48390;BME280;34643;47.964;7.982;2023-04-21T16:26:16;96017.25;;;17.03;54.01
48390;BME280;34643;47.964;7.982;2023-04-21T16:31:16;96014.66;;;17.03;53.93
48390;BME280;34643;47.964;7.982;2023-04-21T16:36:17;96015.50;;;17.04;54.05
48390;BME280;34643;47.964;7.982;2023-04-21T16:41:17;96016.44;;;17.03;53.99
48390;BME280;34643;47.964;7.982;2023-04-21T16:46:17;96016.44;;;17.03;54.06
48390;BME280;34643;47.964;7.982;2023-04-21T16:51:18;96009.56;;;17.02;53.81
48390;BME280;34643;47.964;7.982;2023-04-21T16:56:18;95999.13;;;17.02;53.88
48390;BME280;34643;47.964;7.982;2023-04-21T17:01:19;96010.53;;;17.01;53.87
48390;BME280;34643;47.964;7.982;2023-04-21T17:06:19;96000.09;;;17.01;53.89
48390;BME280;34643;47.964;7.982;2023-04-21T17:11:20;96002.72;;;17.01;54.14
48390;BME280;34643;47.964;7.982;2023-04-21T17:16:20;96007.09;;;17.00;54.05
48390;BME280;34643;47.964;7.982;2023-04-21T17:21:20;96008.75;;;17.01;53.98
48390;BME280;34643;47.964;7.982;2023-04-21T17:26:20;96004.34;;;17.02;53.78
48390;BME280;34643;47.964;7.982;2023-04-21T17:31:21;96005.19;;;17.02;54.10
48390;BME280;34643;47.964;7.982;2023-04-21T17:36:22;96008.63;;;17.03;54.00
48390;BME280;34643;47.964;7.982;2023-04-21T17:41:22;96011.22;;;17.03;53.93
48390;BME280;34643;47.964;7.982;2023-04-21T17:46:23;96006.00;;;17.03;54.08
48390;BME280;34643;47.964;7.982;2023-04-21T17:51:23;96014.66;;;17.03;54.09
48390;BME280;34643;47.964;7.982;2023-04-21T17:56:23;96015.50;;;17.04;53.82
48390;BME280;34643;47.964;7.982;2023-04-21T18:01:24;96013.72;;;17.04;54.06
48390;BME280;34643;47.964;7.982;2023-04-21T18:06:24;96008.13;;;17.19;54.53
48390;BME280;34643;47.964;7.982;2023-04-21T18:11:25;96005.28;;;17.22;54.74
48390;BME280;34643;47.964;7.982;2023-04-21T18:16:26;96001.56;;;17.24;54.76
48390;BME280;34643;47.964;7.982;2023-04-21T18:21:26;96010.06;;;17.26;54.91
48390;BME280;34643;47.964;7.982;2023-04-21T18:26:27;96015.28;;;17.26;55.11
48390;BME280;34643;47.964;7.982;2023-04-21T18:31:27;96011.19;;;17.24;55.03
48390;BME280;34643;47.964;7.982;2023-04-21T18:36:28;96008.69;;;17.22;55.17
48390;BME280;34643;47.964;7.982;2023-04-21T18:41:28;96012.25;;;17.21;55.06
48390;BME280;34643;47.964;7.982;2023-04-21T18:46:28;96013.91;;;17.22;55.26
48390;BME280;34643;47.964;7.982;2023-04-21T18:51:29;96019.13;;;17.22;55.02
48390;BME280;34643;47.964;7.982;2023-04-21T18:56:30;96019.94;;;17.23;54.81
48390;BME280;34643;47.964;7.982;2023-04-21T19:01:31;96027.78;;;17.23;54.98
48390;BME280;34643;47.964;7.982;2023-04-21T19:06:32;96032.16;;;17.22;55.20
48390;BME280;34643;47.964;7.982;2023-04-21T19:11:32;96031.22;;;17.23;55.10
48390;BME280;34643;47.964;7.982;2023-04-21T19:16:33;96034.53;;;17.25;55.07
48390;BME280;34643;47.964;7.982;2023-04-21T19:21:33;96034.41;;;17.27;55.17
48390;BME280;34643;47.964;7.982;2023-04-21T19:26:35;96026.56;;;17.27;55.17
48390;BME280;34643;47.964;7.982;2023-04-21T19:31:36;96035.22;;;17.27;55.13
48390;BME280;34643;47.964;7.982;2023-04-21T19:36:36;96034.22;;;17.28;55.45
48390;BME280;34643;47.964;7.982;2023-04-21T19:41:37;96037.69;;;17.29;55.22
48390;BME280;34643;47.964;7.982;2023-04-21T19:46:37;96032.34;;;17.31;55.24
48390;BME280;34643;47.964;7.982;2023-04-21T19:51:41;96033.03;;;17.33;55.48
48390;BME280;34643;47.964;7.982;2023-04-21T19:56:41;96038.94;;;17.35;55.48
48390;BME280;34643;47.964;7.982;2023-04-21T20:01:43;96038.41;;;17.41;55.82
48390;BME280;34643;47.964;7.982;2023-04-21T20:06:43;96036.50;;;17.43;56.08
48390;BME280;34643;47.964;7.982;2023-04-21T20:11:44;96040.63;;;17.45;56.44
48390;BME280;34643;47.964;7.982;2023-04-21T20:16:44;96048.31;;;17.47;56.15
48390;BME280;34643;47.964;7.982;2023-04-21T20:21:45;96051.88;;;17.46;56.28
48390;BME280;34643;47.964;7.982;2023-04-21T20:26:45;96038.00;;;17.45;56.28
48390;BME280;34643;47.964;7.982;2023-04-21T20:31:45;96038.69;;;17.47;56.29
48390;BME280;34643;47.964;7.982;2023-04-21T20:36:45;96035.97;;;17.49;56.39
48390;BME280;34643;47.964;7.982;2023-04-21T20:41:46;96033.22;;;17.51;56.45
48390;BME280;34643;47.964;7.982;2023-04-21T20:46:47;96040.94;;;17.52;56.53
48390;BME280;34643;47.964;7.982;2023-04-21T20:51:54;96038.19;;;17.54;56.79
48390;BME280;34643;47.964;7.982;2023-04-21T20:56:54;96039.81;;;17.55;56.88
48390;BME280;34643;47.964;7.982;2023-04-21T21:01:54;96052.75;;;17.56;56.75
48390;BME280;34643;47.964;7.982;2023-04-21T21:06:55;96048.34;;;17.57;56.81
48390;BME280;34643;47.964;7.982;2023-04-21T21:11:55;96043.97;;;17.57;56.79
48390;BME280;34643;47.964;7.982;2023-04-21T21:16:56;96047.38;;;17.58;56.95
48390;BME280;34643;47.964;7.982;2023-04-21T21:21:56;96046.44;;;17.59;57.01
48390;BME280;34643;47.964;7.982;2023-04-21T21:26:56;96045.59;;;17.58;56.95
48390;BME280;34643;47.964;7.982;2023-04-21T21:31:57;96048.22;;;17.58;56.93
48390;BME280;34643;47.964;7.982;2023-04-21T21:36:57;96052.47;;;17.59;57.11
48390;BME280;34643;47.964;7.982;2023-04-21T21:41:57;96051.50;;;17.60;57.22
48390;BME280;34643;47.964;7.982;2023-04-21T21:46:58;96043.53;;;17.62;57.14
48390;BME280;34643;47.964;7.982;2023-04-21T21:51:59;96043.41;;;17.63;57.34
48390;BME280;34643;47.964;7.982;2023-04-21T21:56:59;96046.03;;;17.63;57.36
48390;BME280;34643;47.964;7.982;2023-04-21T22:02:00;96042.47;;;17.64;57.43
48390;BME280;34643;47.964;7.982;2023-04-21T22:07:00;96051.94;;;17.65;57.33
48390;BME280;34643;47.964;7.982;2023-04-21T22:12:00;96031.91;;;17.66;57.40
48390;BME280;34643;47.964;7.982;2023-04-21T22:17:01;96043.16;;;17.66;57.45
48390;BME280;34643;47.964;7.982;2023-04-21T22:22:01;96037.94;;;17.66;57.45
48390;BME280;34643;47.964;7.982;2023-04-21T22:27:02;96045.63;;;17.68;57.38
48390;BME280;34643;47.964;7.982;2023-04-21T22:32:04;96050.72;;;17.70;57.57
48390;BME280;34643;47.964;7.982;2023-04-21T22:37:04;96042.91;;;17.70;57.53
48390;BME280;34643;47.964;7.982;2023-04-21T22:42:05;96044.53;;;17.71;57.63
48390;BME280;34643;47.964;7.982;2023-04-21T22:47:05;96047.16;;;17.71;57.54
48390;BME280;34643;47.964;7.982;2023-04-21T22:52:06;96040.13;;;17.71;57.60
48390;BME280;34643;47.964;7.982;2023-04-21T22:57:06;96042.59;;;17.73;57.70
48390;BME280;34643;47.964;7.982;2023-04-21T23:02:06;96038.25;;;17.73;57.66
48390;BME280;34643;47.964;7.982;2023-04-21T23:07:07;96034.66;;;17.74;57.64
48390;BME280;34643;47.964;7.982;2023-04-21T23:12:09;96028.63;;;17.74;57.76
48390;BME280;34643;47.964;7.982;2023-04-21T23:17:09;96029.44;;;17.74;57.74
48390;BME280;34643;47.964;7.982;2023-04-21T23:22:09;96025.75;;;17.77;57.54
48390;BME280;34643;47.964;7.982;2023-04-21T23:27:09;96019.53;;;17.78;57.49
48390;BME280;34643;47.964;7.982;2023-04-21T23:32:10;96032.47;;;17.79;57.61
48390;BME280;34643;47.964;7.982;2023-04-21T23:37:10;96028.06;;;17.80;57.62
48390;BME280;34643;47.964;7.982;2023-04-21T23:42:11;96023.69;;;17.80;57.83
48390;BME280;34643;47.964;7.982;2023-04-21T23:47:11;96029.72;;;17.81;57.95
48390;BME280;34643;47.964;7.982;2023-04-21T23:52:11;96024.75;;;17.78;57.76
48390;BME280;34643;47.964;7.982;2023-04-21T23:57:11;96016.25;;;17.76;57.62
